sensor_id;sensor_type;location;lat;lon;timestamp;P1;durP1;ratioP1;P2;durP2;ratioP2
18286;SDS011;9269;50.838;12.094;2022-08-01T00:01:31;11.07;;;9.67;;
18286;SDS011;9269;50.838;12.094;2022-08-01T00:03:59;10.80;;;9.70;;
18286;SDS011;9269;50.838;12.094;2022-08-01T00:06:28;10.93;;;9.83;;
18286;SDS011;9269;50.838;12.094;2022-08-01T00:08:56;12.10;;;11.00;;
18286;SDS011;9269;50.838;12.094;2022-08-01T00:11:25;11.40;;;10.23;;
18286;SDS011;9269;50.838;12.094;2022-08-01T00:13:53;11.33;;;10.33;;
18286;SDS011;9269;50.838;12.094;2022-08-01T00:16:23;10.60;;;9.70;;
18286;SDS011;9269;50.838;12.094;2022-08-01T00:18:52;9.50;;;8.60;;
18286;SDS011;9269;50.838;12.094;2022-08-01T00:21:21;9.43;;;7.93;;
18286;SDS011;9269;50.838;12.094;2022-08-01T00:23:50;9.03;;;8.17;;
18286;SDS011;9269;50.838;12.094;2022-08-01T00:26:18;8.13;;;7.33;;
18286;SDS011;9269;50.838;12.094;2022-08-01T00:28:47;7.70;;;7.10;;
18286;SDS011;9269;50.838;12.094;2022-08-01T00:31:16;7.33;;;6.73;;
18286;SDS011;9269;50.838;12.094;2022-08-01T00:33:48;7.43;;;6.83;;
18286;SDS011;9269;50.838;12.094;2022-08-01T00:36:16;6.97;;;6.37;;
18286;SDS011;9269;50.838;12.094;2022-08-01T00:38:45;7.77;;;7.07;;
18286;SDS011;9269;50.838;12.094;2022-08-01T00:41:23;7.10;;;6.50;;
18286;SDS011;9269;50.838;12.094;2022-08-01T00:43:51;7.30;;;6.77;;
18286;SDS011;9269;50.838;12.094;2022-08-01T00:46:20;7.13;;;6.60;;
18286;SDS011;9269;50.838;12.094;2022-08-01T00:48:50;7.37;;;6.77;;
18286;SDS011;9269;50.838;12.094;2022-08-01T00:51:20;7.87;;;7.10;;
18286;SDS011;9269;50.838;12.094;2022-08-01T00:53:49;7.13;;;6.53;;
18286;SDS011;9269;50.838;12.094;2022-08-01T00:56:21;6.83;;;6.33;;
18286;SDS011;9269;50.838;12.094;2022-08-01T00:58:52;7.60;;;7.00;;
18286;SDS011;9269;50.838;12.094;2022-08-01T01:01:22;7.60;;;7.00;;
18286;SDS011;9269;50.838;12.094;2022-08-01T01:04:06;7.80;;;7.10;;
18286;SDS011;9269;50.838;12.094;2022-08-01T01:06:38;8.33;;;7.60;;
18286;SDS011;9269;50.838;12.094;2022-08-01T01:09:24;7.77;;;7.17;;
18286;SDS011;9269;50.838;12.094;2022-08-01T01:12:02;8.07;;;7.33;;
18286;SDS011;9269;50.838;12.094;2022-08-01T01:14:42;8.90;;;7.50;;
18286;SDS011;9269;50.838;12.094;2022-08-01T01:17:17;7.53;;;6.90;;
18286;SDS011;9269;50.838;12.094;2022-08-01T01:20:12;8.03;;;7.43;;
18286;SDS011;9269;50.838;12.094;2022-08-01T01:22:47;7.70;;;7.00;;
18286;SDS011;9269;50.838;12.094;2022-08-01T01:25:29;7.70;;;7.10;;
18286;SDS011;9269;50.838;12.094;2022-08-01T01:28:15;8.43;;;7.73;;
18286;SDS011;9269;50.838;12.094;2022-08-01T01:30:55;7.80;;;7.20;;
18286;SDS011;9269;50.838;12.094;2022-08-01T01:33:25;7.90;;;7.30;;
18286;SDS011;9269;50.838;12.094;2022-08-01T01:35:59;7.43;;;6.83;;
18286;SDS011;9269;50.838;12.094;2022-08-01T01:38:37;6.80;;;6.30;;
18286;SDS011;9269;50.838;12.094;2022-08-01T01:41:09;7.63;;;6.90;;
18286;SDS011;9269;50.838;12.094;2022-08-01T01:43:39;7.53;;;6.83;;
18286;SDS011;9269;50.838;12.094;2022-08-01T01:46:11;7.63;;;6.83;;
18286;SDS011;9269;50.838;12.094;2022-08-01T01:48:43;9.23;;;8.30;;
18286;SDS011;9269;50.838;12.094;2022-08-01T01:51:12;8.73;;;8.00;;
18286;SDS011;9269;50.838;12.094;2022-08-01T01:53:42;7.60;;;6.97;;
18286;SDS011;9269;50.838;12.094;2022-08-01T01:56:12;9.37;;;8.47;;
18286;SDS011;9269;50.838;12.094;2022-08-01T01:58:43;9.17;;;8.33;;
18286;SDS011;9269;50.838;12.094;2022-08-01T02:01:14;9.53;;;8.73;;
18286;SDS011;9269;50.838;12.094;2022-08-01T02:04:03;11.93;;;10.73;;
18286;SDS011;9269;50.838;12.094;2022-08-01T02:06:33;12.17;;;10.83;;
18286;SDS011;9269;50.838;12.094;2022-08-01T02:09:02;10.20;;;9.20;;
18286;SDS011;9269;50.838;12.094;2022-08-01T02:11:31;10.20;;;9.27;;
18286;SDS011;9269;50.838;12.094;2022-08-01T02:14:01;9.60;;;8.80;;
18286;SDS011;9269;50.838;12.094;2022-08-01T02:16:33;8.87;;;8.10;;
18286;SDS011;9269;50.838;12.094;2022-08-01T02:19:04;8.73;;;7.93;;
18286;SDS011;9269;50.838;12.094;2022-08-01T02:21:35;8.53;;;7.83;;
18286;SDS011;9269;50.838;12.094;2022-08-01T02:24:09;7.73;;;7.03;;
18286;SDS011;9269;50.838;12.094;2022-08-01T02:26:44;7.70;;;7.00;;
18286;SDS011;9269;50.838;12.094;2022-08-01T02:29:17;7.00;;;6.50;;
18286;SDS011;9269;50.838;12.094;2022-08-01T02:31:52;7.40;;;6.67;;
18286;SDS011;9269;50.838;12.094;2022-08-01T02:34:22;7.57;;;6.97;;
18286;SDS011;9269;50.838;12.094;2022-08-01T02:36:55;8.03;;;7.33;;
18286;SDS011;9269;50.838;12.094;2022-08-01T02:39:24;10.50;;;7.00;;
18286;SDS011;9269;50.838;12.094;2022-08-01T02:41:57;6.33;;;5.83;;
18286;SDS011;9269;50.838;12.094;2022-08-01T02:44:28;7.30;;;6.70;;
18286;SDS011;9269;50.838;12.094;2022-08-01T02:47:02;6.83;;;6.23;;
18286;SDS011;9269;50.838;12.094;2022-08-01T02:49:31;6.73;;;6.20;;
18286;SDS011;9269;50.838;12.094;2022-08-01T02:52:05;6.70;;;6.20;;
18286;SDS011;9269;50.838;12.094;2022-08-01T02:54:36;6.80;;;6.27;;
18286;SDS011;9269;50.838;12.094;2022-08-01T02:57:06;7.07;;;6.47;;
18286;SDS011;9269;50.838;12.094;2022-08-01T02:59:39;7.13;;;6.43;;
18286;SDS011;9269;50.838;12.094;2022-08-01T03:02:12;6.63;;;6.10;;
18286;SDS011;9269;50.838;12.094;2022-08-01T03:04:41;7.00;;;6.50;;
18286;SDS011;9269;50.838;12.094;2022-08-01T03:07:11;6.80;;;6.30;;
18286;SDS011;9269;50.838;12.094;2022-08-01T03:09:43;6.57;;;6.07;;
18286;SDS011;9269;50.838;12.094;2022-08-01T03:12:14;7.03;;;6.43;;
18286;SDS011;9269;50.838;12.094;2022-08-01T03:14:46;6.40;;;5.90;;
18286;SDS011;9269;50.838;12.094;2022-08-01T03:17:19;6.27;;;5.77;;
18286;SDS011;9269;50.838;12.094;2022-08-01T03:19:50;6.23;;;5.73;;
18286;SDS011;9269;50.838;12.094;2022-08-01T03:22:20;6.23;;;5.63;;
18286;SDS011;9269;50.838;12.094;2022-08-01T03:24:51;5.90;;;5.50;;
18286;SDS011;9269;50.838;12.094;2022-08-01T03:27:20;6.90;;;5.70;;
18286;SDS011;9269;50.838;12.094;2022-08-01T03:29:51;5.87;;;5.40;;
18286;SDS011;9269;50.838;12.094;2022-08-01T03:32:23;5.47;;;5.07;;
18286;SDS011;9269;50.838;12.094;2022-08-01T03:34:54;5.30;;;4.80;;
18286;SDS011;9269;50.838;12.094;2022-08-01T03:37:24;5.80;;;5.33;;
18286;SDS011;9269;50.838;12.094;2022-08-01T03:39:55;5.70;;;5.30;;
18286;SDS011;9269;50.838;12.094;2022-08-01T03:42:27;5.57;;;5.17;;
18286;SDS011;9269;50.838;12.094;2022-08-01T03:45:01;5.70;;;5.20;;
18286;SDS011;9269;50.838;12.094;2022-08-01T03:47:35;5.70;;;5.10;;
18286;SDS011;9269;50.838;12.094;2022-08-01T03:50:10;5.03;;;4.73;;
18286;SDS011;9269;50.838;12.094;2022-08-01T03:52:41;5.73;;;5.13;;
18286;SDS011;9269;50.838;12.094;2022-08-01T03:55:12;6.13;;;5.57;;
18286;SDS011;9269;50.838;12.094;2022-08-01T03:57:43;5.60;;;5.20;;
18286;SDS011;9269;50.838;12.094;2022-08-01T04:00:14;5.00;;;4.60;;
18286;SDS011;9269;50.838;12.094;2022-08-01T04:02:46;5.23;;;4.83;;
18286;SDS011;9269;50.838;12.094;2022-08-01T04:05:16;5.03;;;4.63;;
18286;SDS011;9269;50.838;12.094;2022-08-01T04:07:45;5.00;;;4.60;;
18286;SDS011;9269;50.838;12.094;2022-08-01T04:10:16;5.20;;;4.80;;
18286;SDS011;9269;50.838;12.094;2022-08-01T04:12:45;4.70;;;4.30;;
18286;SDS011;9269;50.838;12.094;2022-08-01T04:15:13;4.70;;;4.30;;
18286;SDS011;9269;50.838;12.094;2022-08-01T04:17:43;4.10;;;3.77;;
18286;SDS011;9269;50.838;12.094;2022-08-01T04:20:13;4.67;;;4.30;;
18286;SDS011;9269;50.838;12.094;2022-08-01T04:22:42;4.50;;;4.10;;
18286;SDS011;9269;50.838;12.094;2022-08-01T04:25:11;4.00;;;3.70;;
18286;SDS011;9269;50.838;12.094;2022-08-01T04:27:45;4.00;;;3.57;;
18286;SDS011;9269;50.838;12.094;2022-08-01T04:30:20;4.60;;;3.90;;
18286;SDS011;9269;50.838;12.094;2022-08-01T04:32:51;3.90;;;3.50;;
18286;SDS011;9269;50.838;12.094;2022-08-01T04:35:23;4.00;;;3.70;;
18286;SDS011;9269;50.838;12.094;2022-08-01T04:38:15;4.37;;;3.97;;
18286;SDS011;9269;50.838;12.094;2022-08-01T04:40:50;3.20;;;3.00;;
18286;SDS011;9269;50.838;12.094;2022-08-01T04:43:19;3.30;;;3.10;;
18286;SDS011;9269;50.838;12.094;2022-08-01T04:45:49;2.93;;;2.73;;
18286;SDS011;9269;50.838;12.094;2022-08-01T04:48:18;3.00;;;2.80;;
18286;SDS011;9269;50.838;12.094;2022-08-01T04:50:50;3.67;;;2.50;;
18286;SDS011;9269;50.838;12.094;2022-08-01T04:53:19;2.87;;;2.67;;
18286;SDS011;9269;50.838;12.094;2022-08-01T04:55:49;2.70;;;2.60;;
18286;SDS011;9269;50.838;12.094;2022-08-01T04:58:17;2.90;;;2.60;;
18286;SDS011;9269;50.838;12.094;2022-08-01T05:00:46;2.33;;;2.17;;
18286;SDS011;9269;50.838;12.094;2022-08-01T05:03:14;2.50;;;2.40;;
18286;SDS011;9269;50.838;12.094;2022-08-01T05:05:43;2.40;;;2.30;;
18286;SDS011;9269;50.838;12.094;2022-08-01T05:08:12;2.63;;;2.43;;
18286;SDS011;9269;50.838;12.094;2022-08-01T05:10:43;2.17;;;2.00;;
18286;SDS011;9269;50.838;12.094;2022-08-01T05:13:11;2.70;;;2.50;;
18286;SDS011;9269;50.838;12.094;2022-08-01T05:15:41;2.60;;;2.40;;
18286;SDS011;9269;50.838;12.094;2022-08-01T05:18:10;3.33;;;2.17;;
18286;SDS011;9269;50.838;12.094;2022-08-01T05:20:40;2.40;;;2.30;;
18286;SDS011;9269;50.838;12.094;2022-08-01T05:23:08;2.70;;;2.23;;
18286;SDS011;9269;50.838;12.094;2022-08-01T05:26:00;2.30;;;2.10;;
18286;SDS011;9269;50.838;12.094;2022-08-01T05:28:31;2.70;;;2.50;;
18286;SDS011;9269;50.838;12.094;2022-08-01T05:31:01;2.77;;;2.57;;
18286;SDS011;9269;50.838;12.094;2022-08-01T05:33:32;2.50;;;2.30;;
18286;SDS011;9269;50.838;12.094;2022-08-01T05:36:03;2.50;;;2.30;;
18286;SDS011;9269;50.838;12.094;2022-08-01T05:38:34;2.10;;;2.00;;
18286;SDS011;9269;50.838;12.094;2022-08-01T05:41:06;2.40;;;2.30;;
18286;SDS011;9269;50.838;12.094;2022-08-01T05:43:35;2.90;;;2.70;;
18286;SDS011;9269;50.838;12.094;2022-08-01T05:46:04;3.00;;;2.07;;
18286;SDS011;9269;50.838;12.094;2022-08-01T05:48:32;2.40;;;2.30;;
18286;SDS011;9269;50.838;12.094;2022-08-01T05:51:00;2.40;;;2.30;;
18286;SDS011;9269;50.838;12.094;2022-08-01T05:53:29;2.50;;;2.30;;
18286;SDS011;9269;50.838;12.094;2022-08-01T05:56:00;2.67;;;2.40;;
18286;SDS011;9269;50.838;12.094;2022-08-01T05:58:30;2.40;;;2.20;;
18286;SDS011;9269;50.838;12.094;2022-08-01T06:00:59;2.17;;;2.07;;
18286;SDS011;9269;50.838;12.094;2022-08-01T06:03:27;2.30;;;2.10;;
18286;SDS011;9269;50.838;12.094;2022-08-01T06:05:58;2.57;;;2.37;;
18286;SDS011;9269;50.838;12.094;2022-08-01T06:08:26;2.83;;;2.63;;
18286;SDS011;9269;50.838;12.094;2022-08-01T06:10:55;2.50;;;2.30;;
18286;SDS011;9269;50.838;12.094;2022-08-01T06:13:24;2.80;;;2.60;;
18286;SDS011;9269;50.838;12.094;2022-08-01T06:15:53;2.33;;;2.23;;
18286;SDS011;9269;50.838;12.094;2022-08-01T06:18:22;2.37;;;2.17;;
18286;SDS011;9269;50.838;12.094;2022-08-01T06:20:50;2.30;;;2.20;;
18286;SDS011;9269;50.838;12.094;2022-08-01T06:23:19;2.57;;;2.30;;
18286;SDS011;9269;50.838;12.094;2022-08-01T06:25:58;2.50;;;2.30;;
18286;SDS011;9269;50.838;12.094;2022-08-01T06:28:27;2.37;;;2.27;;
18286;SDS011;9269;50.838;12.094;2022-08-01T06:30:57;2.50;;;2.40;;
18286;SDS011;9269;50.838;12.094;2022-08-01T06:33:27;2.67;;;2.50;;
18286;SDS011;9269;50.838;12.094;2022-08-01T06:35:56;2.67;;;2.47;;
18286;SDS011;9269;50.838;12.094;2022-08-01T06:38:24;2.57;;;2.40;;
18286;SDS011;9269;50.838;12.094;2022-08-01T06:40:53;3.13;;;2.83;;
18286;SDS011;9269;50.838;12.094;2022-08-01T06:43:21;2.70;;;2.50;;
18286;SDS011;9269;50.838;12.094;2022-08-01T06:45:50;2.30;;;2.13;;
18286;SDS011;9269;50.838;12.094;2022-08-01T06:48:19;2.63;;;2.43;;
18286;SDS011;9269;50.838;12.094;2022-08-01T06:50:47;2.47;;;2.27;;
18286;SDS011;9269;50.838;12.094;2022-08-01T06:53:34;2.30;;;2.20;;
18286;SDS011;9269;50.838;12.094;2022-08-01T06:56:04;2.50;;;2.30;;
18286;SDS011;9269;50.838;12.094;2022-08-01T06:58:35;2.20;;;2.00;;
18286;SDS011;9269;50.838;12.094;2022-08-01T07:01:04;3.53;;;2.50;;
18286;SDS011;9269;50.838;12.094;2022-08-01T07:03:36;3.23;;;2.40;;
18286;SDS011;9269;50.838;12.094;2022-08-01T07:06:21;2.10;;;1.90;;
18286;SDS011;9269;50.838;12.094;2022-08-01T07:08:50;2.80;;;2.60;;
18286;SDS011;9269;50.838;12.094;2022-08-01T07:11:19;2.47;;;2.27;;
18286;SDS011;9269;50.838;12.094;2022-08-01T07:13:48;2.30;;;2.10;;
18286;SDS011;9269;50.838;12.094;2022-08-01T07:16:16;2.20;;;2.00;;
18286;SDS011;9269;50.838;12.094;2022-08-01T07:18:46;2.90;;;2.30;;
18286;SDS011;9269;50.838;12.094;2022-08-01T07:21:14;2.50;;;2.30;;
18286;SDS011;9269;50.838;12.094;2022-08-01T07:24:03;2.57;;;2.37;;
18286;SDS011;9269;50.838;12.094;2022-08-01T07:26:40;1.90;;;1.80;;
18286;SDS011;9269;50.838;12.094;2022-08-01T07:29:20;2.57;;;2.00;;
18286;SDS011;9269;50.838;12.094;2022-08-01T07:31:49;2.20;;;2.10;;
18286;SDS011;9269;50.838;12.094;2022-08-01T07:34:21;2.70;;;2.50;;
18286;SDS011;9269;50.838;12.094;2022-08-01T07:36:50;2.63;;;2.43;;
18286;SDS011;9269;50.838;12.094;2022-08-01T07:39:19;2.10;;;2.00;;
18286;SDS011;9269;50.838;12.094;2022-08-01T07:41:48;2.43;;;2.30;;
18286;SDS011;9269;50.838;12.094;2022-08-01T07:44:34;2.87;;;2.40;;
18286;SDS011;9269;50.838;12.094;2022-08-01T07:47:03;2.40;;;2.30;;
18286;SDS011;9269;50.838;12.094;2022-08-01T07:49:34;2.83;;;2.57;;
18286;SDS011;9269;50.838;12.094;2022-08-01T07:52:07;4.33;;;2.10;;
18286;SDS011;9269;50.838;12.094;2022-08-01T07:54:36;1.70;;;1.60;;
18286;SDS011;9269;50.838;12.094;2022-08-01T07:57:04;2.00;;;1.80;;
18286;SDS011;9269;50.838;12.094;2022-08-01T07:59:34;1.90;;;1.80;;
18286;SDS011;9269;50.838;12.094;2022-08-01T08:02:02;3.20;;;1.70;;
18286;SDS011;9269;50.838;12.094;2022-08-01T08:04:31;2.40;;;1.37;;
18286;SDS011;9269;50.838;12.094;2022-08-01T08:07:01;1.70;;;1.60;;
18286;SDS011;9269;50.838;12.094;2022-08-01T08:09:30;1.97;;;1.40;;
18286;SDS011;9269;50.838;12.094;2022-08-01T08:12:04;1.50;;;1.40;;
18286;SDS011;9269;50.838;12.094;2022-08-01T08:14:34;2.50;;;1.20;;
18286;SDS011;9269;50.838;12.094;2022-08-01T08:17:02;1.30;;;1.20;;
18286;SDS011;9269;50.838;12.094;2022-08-01T08:19:30;1.40;;;1.27;;
18286;SDS011;9269;50.838;12.094;2022-08-01T08:22:06;2.80;;;1.37;;
18286;SDS011;9269;50.838;12.094;2022-08-01T08:24:36;1.20;;;1.10;;
18286;SDS011;9269;50.838;12.094;2022-08-01T08:27:12;1.40;;;1.30;;
18286;SDS011;9269;50.838;12.094;2022-08-01T08:29:41;2.33;;;1.20;;
18286;SDS011;9269;50.838;12.094;2022-08-01T08:32:11;2.30;;;1.20;;
18286;SDS011;9269;50.838;12.094;2022-08-01T08:34:39;1.37;;;1.27;;
18286;SDS011;9269;50.838;12.094;2022-08-01T08:37:10;2.03;;;1.20;;
18286;SDS011;9269;50.838;12.094;2022-08-01T08:39:39;0.87;;;0.87;;
18286;SDS011;9269;50.838;12.094;2022-08-01T08:42:23;1.90;;;1.27;;
18286;SDS011;9269;50.838;12.094;2022-08-01T08:44:52;1.20;;;1.10;;
18286;SDS011;9269;50.838;12.094;2022-08-01T08:47:24;1.37;;;1.10;;
18286;SDS011;9269;50.838;12.094;2022-08-01T08:49:56;1.80;;;1.37;;
18286;SDS011;9269;50.838;12.094;2022-08-01T08:52:26;2.53;;;1.60;;
18286;SDS011;9269;50.838;12.094;2022-08-01T08:54:55;1.30;;;1.20;;
18286;SDS011;9269;50.838;12.094;2022-08-01T08:57:25;1.47;;;1.37;;
18286;SDS011;9269;50.838;12.094;2022-08-01T08:59:53;1.27;;;1.13;;
18286;SDS011;9269;50.838;12.094;2022-08-01T09:02:23;1.40;;;1.30;;
18286;SDS011;9269;50.838;12.094;2022-08-01T09:04:51;1.07;;;1.07;;
18286;SDS011;9269;50.838;12.094;2022-08-01T09:07:20;1.20;;;1.20;;
18286;SDS011;9269;50.838;12.094;2022-08-01T09:09:51;1.17;;;0.97;;
18286;SDS011;9269;50.838;12.094;2022-08-01T09:12:19;1.20;;;1.20;;
18286;SDS011;9269;50.838;12.094;2022-08-01T09:14:47;1.03;;;1.03;;
18286;SDS011;9269;50.838;12.094;2022-08-01T09:17:21;1.30;;;1.20;;
18286;SDS011;9269;50.838;12.094;2022-08-01T09:19:52;1.50;;;1.40;;
18286;SDS011;9269;50.838;12.094;2022-08-01T09:22:25;1.00;;;1.00;;
18286;SDS011;9269;50.838;12.094;2022-08-01T09:24:58;1.33;;;1.27;;
18286;SDS011;9269;50.838;12.094;2022-08-01T09:27:28;1.37;;;1.30;;
18286;SDS011;9269;50.838;12.094;2022-08-01T09:30:09;2.10;;;1.40;;
18286;SDS011;9269;50.838;12.094;2022-08-01T09:32:55;2.60;;;1.27;;
18286;SDS011;9269;50.838;12.094;2022-08-01T09:35:37;2.73;;;1.30;;
18286;SDS011;9269;50.838;12.094;2022-08-01T09:38:12;1.30;;;1.20;;
18286;SDS011;9269;50.838;12.094;2022-08-01T09:40:54;1.30;;;1.20;;
18286;SDS011;9269;50.838;12.094;2022-08-01T09:43:25;1.13;;;1.13;;
18286;SDS011;9269;50.838;12.094;2022-08-01T09:45:58;1.50;;;1.40;;
18286;SDS011;9269;50.838;12.094;2022-08-01T09:48:30;1.20;;;1.20;;
18286;SDS011;9269;50.838;12.094;2022-08-01T09:51:03;1.93;;;1.40;;
18286;SDS011;9269;50.838;12.094;2022-08-01T09:53:42;1.37;;;1.37;;
18286;SDS011;9269;50.838;12.094;2022-08-01T09:56:21;1.50;;;1.40;;
18286;SDS011;9269;50.838;12.094;2022-08-01T09:58:52;1.30;;;1.30;;
18286;SDS011;9269;50.838;12.094;2022-08-01T10:01:29;1.17;;;1.13;;
18286;SDS011;9269;50.838;12.094;2022-08-01T10:04:12;1.57;;;1.40;;
18286;SDS011;9269;50.838;12.094;2022-08-01T10:06:45;1.43;;;1.33;;
18286;SDS011;9269;50.838;12.094;2022-08-01T10:09:26;1.30;;;1.20;;
18286;SDS011;9269;50.838;12.094;2022-08-01T10:12:11;1.10;;;1.00;;
18286;SDS011;9269;50.838;12.094;2022-08-01T10:14:48;1.10;;;1.10;;
18286;SDS011;9269;50.838;12.094;2022-08-01T10:17:24;1.70;;;1.40;;
18286;SDS011;9269;50.838;12.094;2022-08-01T10:20:17;1.20;;;1.10;;
18286;SDS011;9269;50.838;12.094;2022-08-01T10:22:58;0.90;;;0.90;;
18286;SDS011;9269;50.838;12.094;2022-08-01T10:25:40;0.93;;;0.93;;
18286;SDS011;9269;50.838;12.094;2022-08-01T10:28:17;1.67;;;1.30;;
18286;SDS011;9269;50.838;12.094;2022-08-01T10:30:50;0.97;;;0.93;;
18286;SDS011;9269;50.838;12.094;2022-08-01T10:33:23;1.20;;;1.20;;
18286;SDS011;9269;50.838;12.094;2022-08-01T10:36:13;1.17;;;1.17;;
18286;SDS011;9269;50.838;12.094;2022-08-01T10:38:43;0.80;;;0.80;;
18286;SDS011;9269;50.838;12.094;2022-08-01T10:41:21;0.77;;;0.77;;
18286;SDS011;9269;50.838;12.094;2022-08-01T10:43:52;0.60;;;0.60;;
18286;SDS011;9269;50.838;12.094;2022-08-01T10:46:25;4.57;;;1.13;;
18286;SDS011;9269;50.838;12.094;2022-08-01T10:48:58;1.00;;;1.00;;
18286;SDS011;9269;50.838;12.094;2022-08-01T10:51:31;0.77;;;0.70;;
18286;SDS011;9269;50.838;12.094;2022-08-01T10:54:23;1.33;;;1.00;;
18286;SDS011;9269;50.838;12.094;2022-08-01T10:56:53;0.83;;;0.83;;
18286;SDS011;9269;50.838;12.094;2022-08-01T10:59:26;1.10;;;1.00;;
18286;SDS011;9269;50.838;12.094;2022-08-01T11:02:25;0.77;;;0.70;;
18286;SDS011;9269;50.838;12.094;2022-08-01T11:05:00;1.17;;;0.80;;
18286;SDS011;9269;50.838;12.094;2022-08-01T11:07:37;1.10;;;0.80;;
18286;SDS011;9269;50.838;12.094;2022-08-01T11:10:22;1.00;;;1.00;;
18286;SDS011;9269;50.838;12.094;2022-08-01T11:12:54;1.07;;;0.93;;
18286;SDS011;9269;50.838;12.094;2022-08-01T11:15:26;1.43;;;0.73;;
18286;SDS011;9269;50.838;12.094;2022-08-01T11:17:58;1.13;;;0.80;;
18286;SDS011;9269;50.838;12.094;2022-08-01T11:20:28;0.70;;;0.70;;
18286;SDS011;9269;50.838;12.094;2022-08-01T11:29:12;0.93;;;0.60;;
18286;SDS011;9269;50.838;12.094;2022-08-01T11:31:49;0.60;;;0.60;;
18286;SDS011;9269;50.838;12.094;2022-08-01T11:34:19;0.73;;;0.73;;
18286;SDS011;9269;50.838;12.094;2022-08-01T11:40:16;0.63;;;0.63;;
18286;SDS011;9269;50.838;12.094;2022-08-01T11:42:51;1.30;;;0.60;;
18286;SDS011;9269;50.838;12.094;2022-08-01T11:45:49;1.07;;;0.70;;
18286;SDS011;9269;50.838;12.094;2022-08-01T11:48:20;0.67;;;0.60;;
18286;SDS011;9269;50.838;12.094;2022-08-01T11:50:54;0.70;;;0.70;;
18286;SDS011;9269;50.838;12.094;2022-08-01T11:53:23;0.60;;;0.60;;
18286;SDS011;9269;50.838;12.094;2022-08-01T11:55:54;0.60;;;0.60;;
18286;SDS011;9269;50.838;12.094;2022-08-01T11:58:25;0.70;;;0.70;;
18286;SDS011;9269;50.838;12.094;2022-08-01T12:00:58;0.80;;;0.80;;
18286;SDS011;9269;50.838;12.094;2022-08-01T12:03:28;0.80;;;0.80;;
18286;SDS011;9269;50.838;12.094;2022-08-01T12:06:00;0.70;;;0.70;;
18286;SDS011;9269;50.838;12.094;2022-08-01T12:08:29;0.40;;;0.40;;
18286;SDS011;9269;50.838;12.094;2022-08-01T12:11:03;1.87;;;0.67;;
18286;SDS011;9269;50.838;12.094;2022-08-01T12:13:39;0.93;;;0.83;;
18286;SDS011;9269;50.838;12.094;2022-08-01T12:16:09;0.70;;;0.70;;
18286;SDS011;9269;50.838;12.094;2022-08-01T12:18:39;1.17;;;0.80;;
18286;SDS011;9269;50.838;12.094;2022-08-01T12:21:09;0.70;;;0.70;;
18286;SDS011;9269;50.838;12.094;2022-08-01T12:23:39;0.67;;;0.63;;
18286;SDS011;9269;50.838;12.094;2022-08-01T12:26:08;1.60;;;0.70;;
18286;SDS011;9269;50.838;12.094;2022-08-01T12:28:57;0.50;;;0.50;;
18286;SDS011;9269;50.838;12.094;2022-08-01T12:31:32;0.53;;;0.53;;
18286;SDS011;9269;50.838;12.094;2022-08-01T12:34:24;0.60;;;0.60;;
18286;SDS011;9269;50.838;12.094;2022-08-01T12:36:54;0.40;;;0.40;;
18286;SDS011;9269;50.838;12.094;2022-08-01T12:39:29;0.60;;;0.60;;
18286;SDS011;9269;50.838;12.094;2022-08-01T12:42:01;1.70;;;0.50;;
18286;SDS011;9269;50.838;12.094;2022-08-01T12:44:32;0.67;;;0.47;;
18286;SDS011;9269;50.838;12.094;2022-08-01T12:47:02;0.50;;;0.50;;
18286;SDS011;9269;50.838;12.094;2022-08-01T12:49:34;0.50;;;0.50;;
18286;SDS011;9269;50.838;12.094;2022-08-01T12:52:04;0.47;;;0.47;;
18286;SDS011;9269;50.838;12.094;2022-08-01T12:57:38;0.70;;;0.70;;
18286;SDS011;9269;50.838;12.094;2022-08-01T13:00:09;0.70;;;0.63;;
18286;SDS011;9269;50.838;12.094;2022-08-01T13:02:40;0.63;;;0.63;;
18286;SDS011;9269;50.838;12.094;2022-08-01T13:05:09;0.30;;;0.30;;
18286;SDS011;9269;50.838;12.094;2022-08-01T13:07:40;0.40;;;0.40;;
18286;SDS011;9269;50.838;12.094;2022-08-01T13:10:12;0.30;;;0.30;;
18286;SDS011;9269;50.838;12.094;2022-08-01T13:12:51;0.63;;;0.57;;
18286;SDS011;9269;50.838;12.094;2022-08-01T13:15:25;0.87;;;0.50;;
18286;SDS011;9269;50.838;12.094;2022-08-01T13:17:59;0.50;;;0.50;;
18286;SDS011;9269;50.838;12.094;2022-08-01T13:20:30;0.50;;;0.50;;
18286;SDS011;9269;50.838;12.094;2022-08-01T13:23:10;0.40;;;0.40;;
18286;SDS011;9269;50.838;12.094;2022-08-01T13:25:50;0.90;;;0.50;;
18286;SDS011;9269;50.838;12.094;2022-08-01T13:28:23;0.50;;;0.50;;
18286;SDS011;9269;50.838;12.094;2022-08-01T13:30:54;0.40;;;0.40;;
18286;SDS011;9269;50.838;12.094;2022-08-01T13:33:25;0.30;;;0.30;;
18286;SDS011;9269;50.838;12.094;2022-08-01T13:35:56;0.43;;;0.40;;
18286;SDS011;9269;50.838;12.094;2022-08-01T13:38:24;0.87;;;0.57;;
18286;SDS011;9269;50.838;12.094;2022-08-01T13:41:10;0.40;;;0.40;;
18286;SDS011;9269;50.838;12.094;2022-08-01T13:43:40;0.77;;;0.60;;
18286;SDS011;9269;50.838;12.094;2022-08-01T13:46:25;0.40;;;0.40;;
18286;SDS011;9269;50.838;12.094;2022-08-01T13:48:55;0.40;;;0.40;;
18286;SDS011;9269;50.838;12.094;2022-08-01T13:51:31;1.67;;;1.10;;
18286;SDS011;9269;50.838;12.094;2022-08-01T13:53:59;0.50;;;0.37;;
18286;SDS011;9269;50.838;12.094;2022-08-01T13:56:28;0.40;;;0.40;;
18286;SDS011;9269;50.838;12.094;2022-08-01T13:58:58;1.03;;;0.30;;
18286;SDS011;9269;50.838;12.094;2022-08-01T14:01:26;1.03;;;0.40;;
18286;SDS011;9269;50.838;12.094;2022-08-01T14:04:00;0.70;;;0.70;;
18286;SDS011;9269;50.838;12.094;2022-08-01T14:06:30;0.27;;;0.27;;
18286;SDS011;9269;50.838;12.094;2022-08-01T14:08:59;0.50;;;0.50;;
18286;SDS011;9269;50.838;12.094;2022-08-01T14:11:43;0.40;;;0.40;;
18286;SDS011;9269;50.838;12.094;2022-08-01T14:14:13;0.83;;;0.47;;
18286;SDS011;9269;50.838;12.094;2022-08-01T14:16:41;0.50;;;0.50;;
18286;SDS011;9269;50.838;12.094;2022-08-01T14:19:11;0.53;;;0.40;;
18286;SDS011;9269;50.838;12.094;2022-08-01T14:21:42;0.83;;;0.40;;
18286;SDS011;9269;50.838;12.094;2022-08-01T14:24:12;0.40;;;0.40;;
18286;SDS011;9269;50.838;12.094;2022-08-01T14:26:40;0.77;;;0.77;;
18286;SDS011;9269;50.838;12.094;2022-08-01T14:29:09;0.57;;;0.57;;
18286;SDS011;9269;50.838;12.094;2022-08-01T14:31:39;0.40;;;0.40;;
18286;SDS011;9269;50.838;12.094;2022-08-01T14:34:07;0.43;;;0.40;;
18286;SDS011;9269;50.838;12.094;2022-08-01T14:36:36;1.00;;;0.80;;
18286;SDS011;9269;50.838;12.094;2022-08-01T14:39:06;1.03;;;0.70;;
18286;SDS011;9269;50.838;12.094;2022-08-01T14:41:40;1.30;;;0.60;;
18286;SDS011;9269;50.838;12.094;2022-08-01T14:44:12;0.50;;;0.50;;
18286;SDS011;9269;50.838;12.094;2022-08-01T14:46:42;1.37;;;0.50;;
18286;SDS011;9269;50.838;12.094;2022-08-01T14:49:24;0.40;;;0.40;;
18286;SDS011;9269;50.838;12.094;2022-08-01T14:51:56;0.83;;;0.40;;
18286;SDS011;9269;50.838;12.094;2022-08-01T14:54:24;0.57;;;0.50;;
18286;SDS011;9269;50.838;12.094;2022-08-01T14:57:01;0.97;;;0.70;;
18286;SDS011;9269;50.838;12.094;2022-08-01T14:59:32;1.10;;;0.50;;
18286;SDS011;9269;50.838;12.094;2022-08-01T15:02:01;0.97;;;0.57;;
18286;SDS011;9269;50.838;12.094;2022-08-01T15:04:32;0.43;;;0.43;;
18286;SDS011;9269;50.838;12.094;2022-08-01T15:07:00;0.50;;;0.50;;
18286;SDS011;9269;50.838;12.094;2022-08-01T15:09:29;1.23;;;0.60;;
18286;SDS011;9269;50.838;12.094;2022-08-01T15:11:57;2.43;;;0.63;;
18286;SDS011;9269;50.838;12.094;2022-08-01T15:14:26;0.40;;;0.33;;
18286;SDS011;9269;50.838;12.094;2022-08-01T15:17:13;1.30;;;1.10;;
18286;SDS011;9269;50.838;12.094;2022-08-01T15:19:42;0.73;;;0.73;;
18286;SDS011;9269;50.838;12.094;2022-08-01T15:22:10;1.57;;;0.50;;
18286;SDS011;9269;50.838;12.094;2022-08-01T15:24:40;2.70;;;0.60;;
18286;SDS011;9269;50.838;12.094;2022-08-01T15:27:10;1.07;;;0.60;;
18286;SDS011;9269;50.838;12.094;2022-08-01T15:29:39;0.67;;;0.67;;
18286;SDS011;9269;50.838;12.094;2022-08-01T15:32:08;1.23;;;0.60;;